Flight Track Log - Related Links

Times and Time Zones

All times are in EDT time to prevent confusion due to time zone crossing. See the N7191N flight status page for this flight to view local times or setup timezone preferences in your user account.

Time Position Orientation Groundspeed Altitude Reporting Facility
EDT Latitude Longitude Course Direction KTS MPH feet Rate Location/Type
Wed 04:23:54 PM 34.9978 -81.0569 335° Northwest 123 142 1,000  Level Atlanta Center
Wed 04:24:19 PM 35.0103 -81.0642 335° Northwest 137 158 1,600 1,256 Climbing Atlanta Center
Wed 04:25:20 PM 35.0158 -81.1197 277° West 192 221 2,800 724 Climbing Atlanta Center
Wed 04:26:15 PM 35.0133 -81.1858 267° West 227 261 3,000 984 Climbing Atlanta Center
Wed 04:27:22 PM 35.0500 -81.2428 308° West 180 207 4,800 1,412 Climbing Atlanta Center
Wed 04:27:40 PM 35.0586 -81.2503 325° Northwest 177 204 5,000 1,279 Climbing Atlanta Center
Wed 04:28:23 PM 35.0925 -81.2769 327° Northwest 174 200 6,100 1,300 Climbing Atlanta Center
Wed 04:28:40 PM 35.1031 -81.2767 North 157 181 6,300 1,574 Climbing Atlanta Center
Wed 04:29:24 PM 35.1386 -81.2806 355° North 173 199 7,700 1,600 Climbing Atlanta Center
Wed 04:29:40 PM 35.1511 -81.2878 335° Northwest 177 204 7,900 1,355 Climbing Atlanta Center
Wed 04:30:26 PM 35.1867 -81.2917 355° North 173 199 9,100 1,570 Climbing Atlanta Center
Wed 04:31:27 PM 35.2350 -81.2975 354° North 174 200 10,700 1,525 Climbing Atlanta Center
Wed 04:32:28 PM 35.2567 -81.2408 331° Northwest 172 198 12,200 1,263 Climbing Atlanta Center
Wed 04:33:40 PM 35.3036 -81.1986 36° Northeast 191 220 13,500 818 Climbing Atlanta Center
Wed 04:34:40 PM 35.3572 -81.1714 22° Northeast 201 231 14,000 450 Climbing Atlanta Center
Wed 04:35:40 PM 35.4150 -81.1389 25° Northeast 218 251 14,400 750 Climbing Atlanta Center
Wed 04:36:40 PM 35.4747 -81.1136 19° North 226 260 15,500 1,200 Climbing Atlanta Center
Wed 04:37:40 PM 35.5242 -81.0839 26° Northeast 216 249 16,800 1,200 Climbing Atlanta Center
Wed 04:38:40 PM 35.5744 -81.0972 348° North 182 209 17,900 900 Climbing Atlanta Center
Wed 04:39:40 PM 35.6314 -81.1183 343° North 189 217 18,600 800 Climbing Atlanta Center
Wed 04:40:40 PM 35.6942 -81.1289 352° North 208 239 19,500 950 Climbing Atlanta Center
Wed 04:41:40 PM 35.7550 -81.1447 348° North 220 253 20,500 950 Climbing Atlanta Center
Wed 04:42:40 PM 35.8158 -81.1553 352° North 220 253 21,400 850 Climbing Atlanta Center
Wed 04:43:40 PM 35.8767 -81.1683 350° North 220 253 22,200 800 Climbing Atlanta Center
Wed 04:44:40 PM 35.9417 -81.1817 351° North 226 260 23,000 800 Climbing Atlanta Center
Wed 04:45:40 PM 36.0022 -81.1922 352° North 226 260 23,800 500 Climbing Atlanta Center
Wed 04:46:40 PM 36.0694 -81.2053 351° North 226 260 24,000 100 Climbing Atlanta Center
Wed 04:47:40 PM 36.1406 -81.2183 352° North 246 283 24,000  Level Atlanta Center
Wed 04:48:40 PM 36.2139 -81.2336 350° North 258 297 24,000  Level Atlanta Center
Wed 04:49:40 PM 36.2767 -81.2444 352° North 263 303 24,000  Level Atlanta Center
Wed 04:50:40 PM 36.3522 -81.2625 349° North 258 297 24,000  Level Atlanta Center
Wed 04:51:40 PM 36.4275 -81.2753 352° North 258 297 24,000  Level Atlanta Center
Wed 04:52:40 PM 36.5008 -81.2883 352° North 258 297 24,000  Level Atlanta Center
Wed 04:53:40 PM 36.5742 -81.3064 349° North 258 297 24,000  Level Atlanta Center
Wed 04:54:40 PM 36.6475 -81.3194 352° North 258 297 24,000  Level Atlanta Center
Wed 04:55:40 PM 36.7272 -81.3375 350° North 258 297 24,000  Level Atlanta Center
Wed 04:56:40 PM 36.7900 -81.3508 350° North 258 297 24,000  Level Atlanta Center
Wed 04:58:23 PM 36.9236 -81.3769 351° North 268 308 24,000  Level Indianapolis Center
Wed 04:59:25 PM 36.9939 -81.3911 351° North 263 303 24,000  Level Indianapolis Center
Wed 05:00:27 PM 37.0747 -81.4067 351° North 269 310 24,000  Level Indianapolis Center
Wed 05:01:29 PM 37.1483 -81.4211 351° North 267 307 24,000  Level Indianapolis Center
Wed 05:02:31 PM 37.2219 -81.4358 351° North 268 308 24,000  Level Indianapolis Center
Wed 05:03:33 PM 37.3078 -81.4544 350° North 269 310 24,000  Level Indianapolis Center
Wed 05:04:35 PM 37.3814 -81.4686 351° North 267 307 24,000  Level Indianapolis Center
Wed 05:05:38 PM 37.4525 -81.4833 351° North 265 305 24,000  Level Indianapolis Center
Wed 05:06:40 PM 37.5256 -81.4994 350° North 271 312 24,000  Level Indianapolis Center
Wed 05:07:42 PM 37.6006 -81.5136 351° North 263 303 24,000  Level Indianapolis Center
Wed 05:08:44 PM 37.6858 -81.5317 350° North 264 304 24,000  Level Indianapolis Center
Wed 05:09:46 PM 37.7597 -81.5464 351° North 266 306 24,000  Level Indianapolis Center
Wed 05:10:48 PM 37.8364 -81.5625 351° North 264 304 24,000  Level Indianapolis Center
Wed 05:11:50 PM 37.9083 -81.5769 351° North 261 300 24,000  Level Indianapolis Center
Wed 05:12:52 PM 37.9817 -81.5919 351° North 265 305 24,000  Level Indianapolis Center
Wed 05:13:54 PM 38.0539 -81.6081 350° North 263 303 24,000  Level Indianapolis Center
Wed 05:14:56 PM 38.1269 -81.6236 350° North 266 306 24,000  Level Indianapolis Center
Wed 05:15:58 PM 38.1992 -81.6383 351° North 264 304 24,000  Level Indianapolis Center
Wed 05:17:00 PM 38.2725 -81.6536 351° North 266 306 24,000  Level Indianapolis Center
Wed 05:18:02 PM 38.3592 -81.6719 351° North 264 304 24,000  Level Indianapolis Center
Wed 05:19:04 PM 38.4317 -81.6875 350° North 263 303 24,000  Level Indianapolis Center
Wed 05:20:06 PM 38.5050 -81.7031 351° North 265 305 24,000  Level Indianapolis Center
Wed 05:21:08 PM 38.5781 -81.7186 351° North 264 304 24,000  Level Indianapolis Center
Wed 05:22:10 PM 38.6517 -81.7350 350° North 264 304 24,000  Level Indianapolis Center
Wed 05:23:12 PM 38.7261 -81.7506 351° North 266 306 24,000  Level Indianapolis Center
Wed 05:24:15 PM 38.8000 -81.7653 351° North 266 306 24,000  Level Indianapolis Center
Wed 05:25:17 PM 38.8733 -81.7803 351° North 266 306 24,000  Level Indianapolis Center
Wed 05:26:19 PM 38.9608 -81.7997 350° North 264 304 24,000  Level Indianapolis Center
Wed 05:27:21 PM 39.0336 -81.8147 351° North 265 305 24,000  Level Indianapolis Center
Wed 05:28:23 PM 39.1072 -81.8308 350° North 267 307 24,000  Level Indianapolis Center
Wed 05:29:25 PM 39.1811 -81.8464 351° North 268 308 24,000  Level Indianapolis Center
Wed 05:30:27 PM 39.2544 -81.8628 350° North 266 306 24,000  Level Indianapolis Center
Wed 05:31:29 PM 39.3275 -81.8783 351° North 265 305 24,000  Level Indianapolis Center
Wed 05:32:31 PM 39.4000 -81.8931 351° North 263 303 24,000  Level Indianapolis Center
Wed 05:33:33 PM 39.4883 -81.9119 351° North 266 306 24,000  Level Indianapolis Center
Wed 05:34:35 PM 39.5600 -81.9281 350° North 262 302 24,000  Level Indianapolis Center
Wed 05:35:37 PM 39.6328 -81.9444 350° North 264 304 24,000 -48 Level Indianapolis Center
Wed 05:36:39 PM 39.7053 -81.9600 351° North 262 302 23,900 -532 Descending Indianapolis Center
Wed 05:37:41 PM 39.7869 -81.9778 351° North 266 306 22,900 -968 Descending Indianapolis Center
Wed 05:38:43 PM 39.8617 -81.9942 350° North 268 308 21,900 -919 Descending Indianapolis Center
Wed 05:39:45 PM 39.9367 -82.0106 350° North 268 308 21,000 -774 Descending Indianapolis Center
Wed 05:40:47 PM 40.0092 -82.0264 351° North 262 302 20,300 -823 Descending Indianapolis Center
Wed 05:41:49 PM 40.0847 -82.0214 North 267 307 19,300 -823 Descending Indianapolis Center
Wed 05:42:51 PM 40.1619 -82.0200 North 273 314 18,600 -677 Descending Indianapolis Center
Wed 05:43:53 PM 40.2375 -82.0206 360° North 271 312 17,900 -720 Descending Indianapolis Center
Wed 05:44:56 PM 40.3247 -82.0200 360° North 267 307 17,100 -816 Descending Indianapolis Center
Wed 05:45:58 PM 40.4006 -82.0189 North 268 308 16,200 -968 Descending Indianapolis Center
Wed 05:47:00 PM 40.4750 -82.0169 North 265 305 15,100 -1,016 Descending Indianapolis Center
Wed 05:48:02 PM 40.5497 -82.0167 360° North 265 305 14,100 -1,016 Descending Indianapolis Center
Wed 05:49:04 PM 40.6119 -81.9703 30° Northeast 264 304 13,000 -871 Descending Indianapolis Center
Wed 05:50:06 PM 40.6700 -81.9153 36° Northeast 258 297 12,300 -581 Descending Indianapolis Center
Wed 05:51:08 PM 40.7239 -81.8619 37° Northeast 248 285 11,800 -712 Descending Indianapolis Center
Wed 05:52:04 PM 40.7797 -81.8061 37° Northeast 246 283 10,900 -811 Descending Cleveland Center
Wed 05:52:59 PM 40.8325 -81.7578 35° Northeast 248 285 10,300 -619 Descending Cleveland Center
Wed 05:54:10 PM 40.8956 -81.6900 39° Northeast 243 280 9,600 -563 Descending Cleveland Center
Wed 05:55:07 PM 40.9539 -81.6911 359° North 254 292 9,100 -305 Descending Cleveland Center
Wed 05:56:08 PM 41.0139 -81.7333 332° Northwest 242 278 9,000 -50 Descending Cleveland Center
Wed 05:57:08 PM 41.0806 -81.7567 345° North 230 265 9,000 -344 Level Cleveland Center
Wed 05:58:10 PM 41.1408 -81.7550 North 226 260 8,300 -885 Descending Cleveland Center
Wed 05:59:10 PM 41.2097 -81.7589 358° North 239 275 7,200 -650 Descending Cleveland Center
Wed 06:00:10 PM 41.2783 -81.7656 356° North 239 275 7,000 -375 Descending Cleveland Center
Wed 06:01:18 PM 41.3514 -81.7586 North 233 268 6,400 -884 Descending Cleveland Center
Wed 06:02:19 PM 41.4061 -81.7208 27° Northeast 224 258 5,100 -1,328 Descending Cleveland Center
Wed 06:03:20 PM 41.4539 -81.7411 342° North 180 207 3,700 -1,461 Descending Cleveland Center
Wed 06:04:14 PM 41.4511 -81.7883 266° West 135 155 2,300 -1,230 Descending Cleveland Center
Wed 06:05:22 PM 41.4217 -81.8347 230° Southwest 134 154 1,200 -971 Descending Cleveland Center
Wed 06:07:00 PM 41.4000 -81.8500 90° East  Level FlightAware Approximate

Login

Don't have an account? Register now (free) for customized features, flight alerts, and more!